Time;durP1;ratioP1;P1;durP2;ratioP2;P2;SDS_P1;SDS_P2;PMS_P1;PMS_P2;Temp;Humidity;BMP_temperature;BMP_pressure;BME280_temperature;BME280_humidity;BME280_pressure;Samples;Min_cycle;Max_cycle;Signal;HPM_P1;HPM_P2
2022/09/26 00:01:51;;;;;;;0.85;0.60;;;;;;;12.80;84.71;100924.56;5054572;28;20050;-91
2022/09/26 00:04:20;;;;;;;4.25;0.70;;;;;;;12.81;84.35;100925.44;5056075;28;20021;-90
2022/09/26 00:06:46;;;;;;;1.30;0.90;;;;;;;12.81;84.80;100920.19;5055757;28;20084;-91
2022/09/26 00:09:13;;;;;;;0.80;0.55;;;;;;;12.78;84.55;100913.28;5020418;28;20029;-90
2022/09/26 00:11:39;;;;;;;2.55;0.80;;;;;;;12.80;84.48;100910.56;5020771;28;20075;-90
2022/09/26 00:14:08;;;;;;;2.28;0.80;;;;;;;12.80;84.42;100914.03;5037711;28;20344;-90
2022/09/26 00:16:34;;;;;;;0.70;0.70;;;;;;;12.79;84.82;100901.84;5054315;28;20029;-91
2022/09/26 00:19:00;;;;;;;2.83;0.60;;;;;;;12.80;84.88;100897.44;5037824;28;20106;-91
2022/09/26 00:21:28;;;;;;;0.57;0.57;;;;;;;12.80;84.48;100897.44;5037734;28;20399;-91
2022/09/26 00:23:54;;;;;;;3.60;0.80;;;;;;;12.81;84.89;100891.25;5021228;28;20033;-91
2022/09/26 00:26:21;;;;;;;1.83;0.80;;;;;;;12.81;84.80;100886.00;5054230;28;20061;-90
2022/09/26 00:28:47;;;;;;;1.17;1.08;;;;;;;12.81;84.80;100880.75;5055484;28;20024;-90
2022/09/26 00:31:25;;;;;;;0.80;0.80;;;;;;;12.81;84.67;100875.50;5020968;28;20083;-90
2022/09/26 00:33:51;;;;;;;0.63;0.60;;;;;;;12.82;84.74;100862.28;5055431;28;20074;-91
2022/09/26 00:36:17;;;;;;;2.60;1.00;;;;;;;12.81;84.89;100855.31;5037577;28;20028;-91
2022/09/26 00:38:44;;;;;;;1.77;0.70;;;;;;;12.81;84.92;100842.16;5054359;28;20052;-91
2022/09/26 00:41:10;;;;;;;0.90;0.90;;;;;;;12.82;85.01;100848.28;5037808;28;20372;-91
2022/09/26 00:43:41;;;;;;;4.15;1.20;;;;;;;12.82;84.59;100837.75;5037074;28;20055;-90
2022/09/26 00:46:25;;;;;;;1.25;0.80;;;;;;;12.82;84.78;100837.75;5037219;28;20025;-91
2022/09/26 00:49:18;;;;;;;1.38;0.75;;;;;;;12.82;85.13;100837.75;5054078;28;20336;-91
2022/09/26 00:51:51;;;;;;;2.03;1.10;;;;;;;12.81;84.85;100817.69;5055242;28;20095;-91
2022/09/26 00:54:18;;;;;;;1.30;0.95;;;;;;;12.80;84.89;100810.72;5037222;28;20442;-90
2022/09/26 00:56:48;;;;;;;1.83;0.95;;;;;;;12.79;84.78;100812.50;5037268;28;20220;-90
2022/09/26 00:59:21;;;;;;;1.70;1.00;;;;;;;12.79;85.24;100801.97;5037171;28;20346;-90
2022/09/26 01:01:47;;;;;;;1.30;1.05;;;;;;;12.79;85.07;100788.00;5053958;28;20040;-91
2022/09/26 01:04:13;;;;;;;1.67;1.02;;;;;;;12.81;84.97;100786.13;5020621;28;20025;-90
2022/09/26 01:06:38;;;;;;;1.10;0.82;;;;;;;12.80;84.88;100773.91;5037308;28;20029;-90
2022/09/26 01:09:08;;;;;;;0.40;0.40;;;;;;;12.80;84.76;100760.78;5054039;28;20047;-90
2022/09/26 01:11:35;;;;;;;1.30;0.80;;;;;;;12.80;84.73;100759.00;5037129;28;20255;-91
2022/09/26 01:14:00;;;;;;;1.13;1.02;;;;;;;12.80;84.65;100752.91;5053849;28;20392;-91
2022/09/26 01:16:26;;;;;;;1.90;0.80;;;;;;;12.80;84.62;100751.09;5020709;28;20100;-91
2022/09/26 01:18:52;;;;;;;2.60;1.00;;;;;;;12.80;84.82;100745.84;5037465;28;20332;-90
2022/09/26 01:21:17;;;;;;;1.30;0.82;;;;;;;12.79;84.69;100738.91;5020731;28;20025;-90
2022/09/26 01:23:48;;;;;;;1.27;1.02;;;;;;;12.80;84.77;100732.72;5053850;28;20028;-91
2022/09/26 01:26:38;;;;;;;1.45;0.88;;;;;;;12.79;84.75;100715.25;5053636;28;20047;-91
2022/09/26 01:29:50;;;;;;;1.90;0.90;;;;;;;12.81;84.84;100696.78;5037538;28;20028;-91
2022/09/26 01:32:49;;;;;;;1.77;0.98;;;;;;;12.79;84.59;100702.13;5034871;28;20068;-90
2022/09/26 01:35:30;;;;;;;1.50;1.10;;;;;;;12.79;84.73;100696.88;5056825;28;20024;-91
2022/09/26 01:38:11;;;;;;;1.85;0.95;;;;;;;12.79;84.74;100686.34;5057617;28;20327;-90
2022/09/26 01:40:48;;;;;;;0.85;0.63;;;;;;;12.78;84.77;100684.66;5058622;28;20094;-90
2022/09/26 01:43:21;;;;;;;1.10;1.00;;;;;;;12.79;84.77;100688.97;5040020;28;20525;-90
2022/09/26 01:45:56;;;;;;;1.00;0.77;;;;;;;12.78;84.71;100684.66;5040548;28;20316;-91
2022/09/26 01:48:39;;;;;;;1.58;1.10;;;;;;;12.77;84.55;100682.09;5058037;28;20386;-91
2022/09/26 01:51:27;;;;;;;1.95;1.00;;;;;;;12.77;84.67;100680.34;5040780;28;20029;-90
2022/09/26 01:53:59;;;;;;;6.32;1.38;;;;;;;12.75;84.45;100684.81;5040395;28;20300;-91
2022/09/26 01:56:28;;;;;;;2.58;0.90;;;;;;;12.76;84.58;100683.03;5040066;28;20028;-90
2022/09/26 01:58:59;;;;;;;1.23;1.13;;;;;;;12.75;84.39;100668.19;5058349;28;20263;-90
2022/09/26 02:01:28;;;;;;;1.15;1.00;;;;;;;12.74;84.83;100682.28;5040033;28;20063;-91
2022/09/26 02:03:57;;;;;;;2.35;1.20;;;;;;;12.74;84.86;100669.97;5039852;28;20024;-90
2022/09/26 02:06:43;;;;;;;2.92;1.20;;;;;;;12.74;84.42;100659.47;5056790;28;20205;-90
2022/09/26 02:09:16;;;;;;;1.27;1.10;;;;;;;12.74;84.48;100650.75;5058294;28;20017;-91
2022/09/26 02:11:47;;;;;;;2.40;0.95;;;;;;;12.73;84.59;100644.63;5056565;28;20021;-90
2022/09/26 02:14:20;;;;;;;1.55;0.90;;;;;;;12.74;84.76;100646.31;5039587;28;20053;-91
2022/09/26 02:16:48;;;;;;;1.40;1.10;;;;;;;12.74;84.92;100632.34;5057809;28;20033;-91
2022/09/26 02:19:23;;;;;;;1.02;0.90;;;;;;;12.71;83.83;100628.09;5056611;28;20024;-90
2022/09/26 02:21:49;;;;;;;2.10;0.90;;;;;;;12.72;84.26;100623.69;5057772;28;20064;-90
2022/09/26 02:24:15;;;;;;;0.98;0.90;;;;;;;12.70;83.56;100620.28;5023188;28;20216;-90
2022/09/26 02:26:44;;;;;;;3.20;1.00;;;;;;;12.68;83.99;100608.09;5039983;28;20028;-91
2022/09/26 02:29:12;;;;;;;3.45;1.42;;;;;;;12.69;84.39;100606.31;5023703;28;20033;-91
2022/09/26 02:31:45;;;;;;;2.10;1.10;;;;;;;12.68;83.90;100612.50;5039743;28;20040;-90
2022/09/26 02:34:10;;;;;;;1.45;1.20;;;;;;;12.66;83.64;100612.59;5039962;28;20096;-91
2022/09/26 02:36:37;;;;;;;1.85;0.90;;;;;;;12.67;83.72;100602.91;5023516;28;20037;-91
2022/09/26 02:39:03;;;;;;;1.27;0.98;;;;;;;12.66;83.96;100603.81;5056350;28;20259;-90
2022/09/26 02:42:00;;;;;;;1.08;0.95;;;;;;;12.66;83.23;100593.31;5055953;28;20024;-90
2022/09/26 02:44:38;;;;;;;4.55;1.30;;;;;;;12.64;83.30;100588.16;5056924;28;20029;-90
2022/09/26 02:47:22;;;;;;;2.90;1.17;;;;;;;12.65;83.57;100583.75;5057163;28;20049;-90
2022/09/26 02:50:36;;;;;;;1.00;1.00;;;;;;;12.64;83.67;100580.28;5055843;28;20028;-91
2022/09/26 02:53:17;;;;;;;1.58;1.20;;;;;;;12.62;82.96;100566.38;5031092;28;20190;-91
2022/09/26 02:56:02;;;;;;;2.00;0.98;;;;;;;12.62;83.18;100565.53;5039216;28;20021;-90
2022/09/26 02:58:49;;;;;;;5.35;1.05;;;;;;;12.62;83.18;100549.75;5055671;28;20377;-90
2022/09/26 03:01:41;;;;;;;0.85;0.85;;;;;;;12.61;83.22;100543.66;5056127;28;20264;-89
2022/09/26 03:04:34;;;;;;;1.20;0.93;;;;;;;12.61;83.14;100545.47;5056362;28;20228;-89
2022/09/26 03:07:19;;;;;;;1.17;1.00;;;;;;;12.59;82.61;100535.03;5056542;28;20059;-89
2022/09/26 03:09:51;;;;;;;5.35;1.20;;;;;;;12.59;82.99;100529.78;5057263;28;20071;-89
2022/09/26 03:12:25;;;;;;;2.15;1.45;;;;;;;12.59;83.20;100523.69;5056660;28;20056;-89
2022/09/26 03:14:57;;;;;;;1.20;1.10;;;;;;;12.57;82.46;100520.25;5056786;28;20097;-89
2022/09/26 03:17:30;;;;;;;1.10;1.00;;;;;;;12.56;81.66;100513.31;5056488;28;20064;-89
2022/09/26 03:20:05;;;;;;;1.90;1.02;;;;;;;12.55;82.40;100506.38;5057204;28;20036;-89
2022/09/26 03:22:33;;;;;;;1.38;1.27;;;;;;;12.55;82.48;100507.25;5054967;28;20099;-89
2022/09/26 03:25:02;;;;;;;1.83;1.20;;;;;;;12.53;81.98;100497.72;5039053;28;20041;-89
2022/09/26 03:27:32;;;;;;;2.75;1.20;;;;;;;12.53;82.75;100492.47;5039095;28;20033;-89
2022/09/26 03:30:04;;;;;;;2.63;1.00;;;;;;;12.52;82.08;100475.88;5055523;28;20066;-89
2022/09/26 03:32:31;;;;;;;;;;;;;;;12.52;81.79;100475.88;5055874;28;20052;-89
2022/09/26 03:35:00;;;;;;;2.95;1.33;;;;;;;12.49;81.45;100466.34;5038724;28;19912;-89
2022/09/26 03:37:30;;;;;;;1.63;1.17;;;;;;;12.49;81.36;100462.91;5038734;28;20344;-89
2022/09/26 03:40:02;;;;;;;2.47;1.05;;;;;;;12.46;80.93;100461.28;5056733;28;20094;-88
2022/09/26 03:42:37;;;;;;;1.92;1.08;;;;;;;12.46;81.63;100452.53;5037599;28;20303;-89
2022/09/26 03:45:07;;;;;;;1.42;0.80;;;;;;;12.46;82.18;100445.53;5056114;28;20037;-89
2022/09/26 03:47:33;;;;;;;1.77;0.90;;;;;;;12.46;82.02;100437.66;5046095;28;20563;-89
2022/09/26 03:50:04;;;;;;;1.15;0.90;;;;;;;12.46;81.90;100436.78;5036580;28;20321;-89
2022/09/26 03:52:35;;;;;;;2.15;0.98;;;;;;;12.45;81.93;100441.19;5035984;28;20056;-89
2022/09/26 03:55:03;;;;;;;1.05;0.82;;;;;;;12.44;81.71;100430.78;5018744;28;20082;-89
2022/09/26 03:57:36;;;;;;;3.00;1.13;;;;;;;12.43;81.59;100422.06;5017831;28;20446;-89
2022/09/26 04:00:08;;;;;;;2.63;1.00;;;;;;;12.44;82.04;100407.13;5032278;28;20043;-89
2022/09/26 04:02:35;;;;;;;;;;;;;;;12.42;82.13;100407.22;5036077;28;20113;-89
2022/09/26 04:05:07;;;;;;;1.20;0.80;;;;;;;12.41;81.83;100402.09;5036623;28;19924;-89
2022/09/26 04:07:37;;;;;;;1.13;1.02;;;;;;;12.41;82.30;100399.47;5017907;28;20047;-89
2022/09/26 04:10:10;;;;;;;2.20;0.85;;;;;;;12.41;82.18;100391.56;5035282;28;20037;-89
2022/09/26 04:12:44;;;;;;;3.15;1.13;;;;;;;12.40;82.79;100387.25;5002064;28;20025;-89
2022/09/26 04:15:11;;;;;;;2.30;0.93;;;;;;;12.39;82.52;100369.81;5002803;28;20022;-89
2022/09/26 04:17:38;;;;;;;3.65;1.02;;;;;;;12.39;82.57;100369.81;5031610;28;20112;-89
2022/09/26 04:20:10;;;;;;;3.08;1.23;;;;;;;12.37;82.77;100367.25;5036062;28;20124;-88
2022/09/26 04:22:42;;;;;;;2.38;0.88;;;;;;;12.39;82.65;100359.31;5035572;28;20045;-89
2022/09/26 04:25:16;;;;;;;0.82;0.70;;;;;;;12.37;82.75;100358.53;5018504;28;20049;-89
2022/09/26 04:27:44;;;;;;;1.85;1.00;;;;;;;12.37;82.99;100330.50;5018656;28;20129;-89
2022/09/26 04:30:14;;;;;;;1.65;1.10;;;;;;;12.37;82.75;100343.63;5018493;28;20432;-89
2022/09/26 04:32:47;;;;;;;1.17;1.08;;;;;;;12.37;83.16;100346.25;5032940;28;20045;-89
2022/09/26 04:35:16;;;;;;;0.80;0.70;;;;;;;12.38;83.00;100333.97;5035521;28;20447;-89
2022/09/26 04:37:48;;;;;;;3.53;1.10;;;;;;;12.36;82.55;100313.03;5034471;28;20315;-89
2022/09/26 04:40:23;;;;;;;1.33;1.10;;;;;;;12.36;82.86;100314.84;5035639;28;20342;-89
2022/09/26 04:42:54;;;;;;;1.50;0.82;;;;;;;12.35;82.74;100314.00;5034528;28;20484;-89
2022/09/26 04:45:29;;;;;;;2.53;0.95;;;;;;;12.35;83.31;100300.00;5034812;28;20041;-89
2022/09/26 04:48:18;;;;;;;1.55;1.33;;;;;;;12.35;83.02;100303.50;5046880;28;20440;-89
2022/09/26 04:50:54;;;;;;;1.52;0.80;;;;;;;12.35;83.15;100300.00;5052279;28;20052;-89
2022/09/26 04:53:25;;;;;;;2.30;1.00;;;;;;;12.34;83.05;100290.44;5037526;28;20049;-89
2022/09/26 04:55:53;;;;;;;1.27;1.17;;;;;;;12.33;83.13;100284.31;5054804;28;20028;-89
2022/09/26 04:58:33;;;;;;;2.00;1.17;;;;;;;12.31;82.88;100278.31;5054729;28;20102;-89
2022/09/26 05:01:08;;;;;;;1.17;1.08;;;;;;;12.32;83.01;100284.44;5055934;28;20051;-89
2022/09/26 05:03:43;;;;;;;2.95;1.48;;;;;;;12.31;82.80;100283.56;5037276;28;20037;-89
2022/09/26 05:06:13;;;;;;;0.90;0.90;;;;;;;12.30;83.05;100271.38;5037453;28;20037;-89
2022/09/26 05:08:47;;;;;;;1.10;1.02;;;;;;;12.28;82.59;100268.84;5054169;28;20036;-89
2022/09/26 05:11:23;;;;;;;3.17;1.20;;;;;;;12.27;81.84;100263.69;5040660;28;20021;-89
2022/09/26 05:14:13;;;;;;;4.25;1.25;;;;;;;12.26;82.43;100254.09;5041372;28;20272;-89
2022/09/26 05:17:06;;;;;;;1.70;1.20;;;;;;;12.25;82.67;100258.50;5059224;28;20450;-89
2022/09/26 05:19:41;;;;;;;2.15;1.02;;;;;;;12.25;82.58;100252.41;5058449;28;20063;-89
2022/09/26 05:22:13;;;;;;;3.42;1.10;;;;;;;12.26;82.90;100233.09;5059121;28;20068;-89
2022/09/26 05:27:27;;;;;;;4.60;1.80;;;;;;;12.26;83.01;100223.47;5043966;28;20039;-89
2022/09/26 05:30:00;;;;;;;1.20;1.10;;;;;;;12.26;83.15;100217.34;5055199;28;20036;-89
2022/09/26 05:32:38;;;;;;;1.17;1.08;;;;;;;12.24;83.28;100217.47;5057951;28;20224;-89
2022/09/26 05:35:05;;;;;;;1.23;1.13;;;;;;;12.24;83.14;100211.34;5059966;28;20050;-89
2022/09/26 05:37:37;;;;;;;3.15;1.02;;;;;;;12.24;83.26;100206.97;5059487;28;20659;-89
2022/09/26 05:43:13;;;;;;;3.70;1.30;;;;;;;12.24;82.88;100203.47;5085636;28;20054;-88
2022/09/26 05:45:49;;;;;;;3.28;1.20;;;;;;;12.24;82.85;100182.47;5079720;28;20032;-88
2022/09/26 05:48:28;;;;;;;2.80;1.58;;;;;;;12.24;83.09;100178.06;5052954;28;20032;-88
2022/09/26 05:51:00;;;;;;;1.55;1.23;;;;;;;12.23;83.28;100171.13;5058929;28;20370;-89
2022/09/26 05:54:17;;;;;;;1.33;1.23;;;;;;;12.23;83.30;100163.25;5068214;28;20393;-89
2022/09/26 05:56:49;;;;;;;2.65;1.70;;;;;;;12.23;82.79;100165.88;5069856;28;20036;-89
2022/09/26 05:59:28;;;;;;;2.13;1.50;;;;;;;12.23;83.42;100162.41;5076214;28;20040;-89
2022/09/26 06:01:59;;;;;;;2.20;1.42;;;;;;;12.23;83.08;100159.78;5074933;28;20055;-89
2022/09/26 06:04:36;;;;;;;1.98;1.35;;;;;;;12.21;82.93;100148.53;5059852;28;20054;-88
2022/09/26 06:07:07;;;;;;;1.40;1.30;;;;;;;12.21;83.17;100141.50;5075068;28;20040;-88
2022/09/26 06:09:35;;;;;;;1.85;1.50;;;;;;;12.21;83.15;100145.91;5075910;28;20044;-89
2022/09/26 06:12:18;;;;;;;2.67;1.52;;;;;;;12.21;83.39;100140.66;5074129;28;20078;-89
2022/09/26 06:14:51;;;;;;;2.05;1.45;;;;;;;12.19;83.59;100129.41;5066128;28;20320;-88
2022/09/26 06:17:28;;;;;;;1.52;1.35;;;;;;;12.19;83.47;100125.00;5075753;28;20333;-89
2022/09/26 06:20:00;;;;;;;2.30;1.20;;;;;;;12.21;83.71;100124.91;5075329;28;20315;-88
2022/09/26 06:22:39;;;;;;;4.03;1.77;;;;;;;12.20;83.92;100124.03;5075921;28;20060;-89
2022/09/26 06:25:13;;;;;;;4.45;1.75;;;;;;;12.21;83.98;100117.03;5055159;28;20370;-89
2022/09/26 06:27:41;;;;;;;4.82;1.20;;;;;;;12.20;83.83;100108.28;5072100;28;20347;-89
2022/09/26 06:30:32;;;;;;;2.25;1.33;;;;;;;12.20;83.77;100095.16;5033145;28;20333;-88
2022/09/26 06:33:12;;;;;;;2.35;1.70;;;;;;;12.20;83.96;100078.56;5054654;28;20049;-89
2022/09/26 06:35:52;;;;;;;2.53;1.30;;;;;;;12.20;84.07;100075.94;5066230;28;20037;-89
2022/09/26 06:38:34;;;;;;;2.53;1.33;;;;;;;12.19;84.26;100066.41;5054828;28;20041;-89
2022/09/26 06:41:40;;;;;;;5.50;1.90;;;;;;;12.18;83.91;100069.94;5055601;28;20299;-89
2022/09/26 06:44:31;;;;;;;1.98;1.40;;;;;;;12.17;84.24;100058.63;5029019;28;20348;-88
2022/09/26 06:47:28;;;;;;;5.95;1.45;;;;;;;12.17;84.58;100048.13;5050753;28;20040;-89
2022/09/26 06:50:05;;;;;;;2.92;1.80;;;;;;;12.16;84.50;100046.41;5035687;28;20040;-89
2022/09/26 06:52:38;;;;;;;3.38;1.60;;;;;;;12.17;84.30;100034.13;5066579;28;20119;-89
2022/09/26 06:55:26;;;;;;;1.92;1.38;;;;;;;12.17;84.59;100034.13;5066302;28;20039;-89
2022/09/26 06:58:11;;;;;;;3.03;1.77;;;;;;;12.18;84.38;100022.72;5074915;28;20036;-89
2022/09/26 07:00:50;;;;;;;4.28;1.40;;;;;;;12.18;84.25;100017.47;5060106;28;20044;-89
2022/09/26 07:03:29;;;;;;;2.88;1.45;;;;;;;12.17;84.47;100016.63;5055798;28;20566;-89
2022/09/26 07:05:58;;;;;;;1.58;1.02;;;;;;;12.18;84.21;100004.34;5073133;28;20048;-89
2022/09/26 07:08:29;;;;;;;1.65;1.27;;;;;;;12.18;84.55;100015.66;5075228;28;20024;-89
2022/09/26 07:11:05;;;;;;;3.77;1.60;;;;;;;12.19;84.58;100003.41;5067269;28;20045;-89
2022/09/26 07:13:53;;;;;;;4.35;1.60;;;;;;;12.20;84.54;99999.84;5055105;28;20290;-89
2022/09/26 07:16:40;;;;;;;2.28;1.52;;;;;;;12.21;84.38;100001.53;5057876;28;20324;-89
2022/09/26 07:19:28;;;;;;;5.07;1.33;;;;;;;12.18;84.94;99999.09;5057818;28;20854;-89
2022/09/26 07:21:57;;;;;;;5.40;1.30;;;;;;;12.20;84.72;99984.06;5067270;28;20106;-89
2022/09/26 07:24:30;;;;;;;2.05;1.30;;;;;;;12.22;85.10;99992.69;5060045;28;20111;-89
2022/09/26 07:27:09;;;;;;;2.55;1.30;;;;;;;12.20;84.67;99982.28;5039854;28;20055;-89
2022/09/26 07:29:57;;;;;;;4.45;1.50;;;;;;;12.23;84.90;99976.03;5056246;28;20239;-89
2022/09/26 07:32:24;;;;;;;2.80;1.00;;;;;;;12.21;84.78;99967.41;5034466;28;20056;-89
2022/09/26 07:34:52;;;;;;;3.13;1.45;;;;;;;12.23;84.53;99968.16;5059938;28;20235;-89
2022/09/26 07:37:36;;;;;;;3.70;2.70;;;;;;;12.23;84.99;99973.41;5034641;28;20040;-89
2022/09/26 07:40:19;;;;;;;3.25;1.70;;;;;;;12.22;84.92;99974.31;5055105;28;20040;-89
2022/09/26 07:42:51;;;;;;;4.55;1.35;;;;;;;12.23;84.49;99970.78;5061107;28;20216;-89
2022/09/26 07:51:10;;;;;;;3.03;1.38;;;;;;;12.22;85.04;99964.66;5050154;28;20106;-89
2022/09/26 07:53:47;;;;;;;2.13;1.50;;;;;;;12.23;85.22;99955.03;5052109;28;20128;-89
2022/09/26 07:56:15;;;;;;;3.85;1.58;;;;;;;12.23;85.21;99955.88;5045478;28;20228;-88
2022/09/26 07:59:19;;;;;;;;;;;;;;;;;;;;;
2022/09/26 08:01:58;;;;;;;4.15;1.50;;;;;;;12.23;85.28;99955.88;5044699;28;20327;-91
2022/09/26 08:05:07;;;;;;;2.20;1.45;;;;;;;12.23;85.89;99953.25;5048770;28;20037;-90
2022/09/26 08:08:32;;;;;;;3.00;1.30;;;;;;;12.22;85.39;99950.69;5049638;28;20087;-89
2022/09/26 08:11:54;;;;;;;1.77;1.25;;;;;;;12.23;85.71;99940.09;5049918;28;20037;-90
2022/09/26 08:14:57;;;;;;;3.05;1.15;;;;;;;12.26;86.01;99944.31;5050343;28;20240;-90
2022/09/26 08:17:35;;;;;;;2.10;1.20;;;;;;;12.24;85.79;99927.81;5030222;28;20111;-90
2022/09/26 08:20:17;;;;;;;2.85;1.63;;;;;;;12.24;86.15;99923.44;5044266;28;20041;-91
2022/09/26 08:23:21;;;;;;;2.03;1.52;;;;;;;12.28;86.23;99926.72;5040290;28;20067;-90
2022/09/26 08:26:02;;;;;;;3.17;1.40;;;;;;;12.28;85.82;99932.78;5036333;28;20197;-88
2022/09/26 08:28:40;;;;;;;3.63;1.67;;;;;;;12.28;86.22;99922.31;5039921;28;20035;-88
2022/09/26 08:31:10;;;;;;;2.65;1.58;;;;;;;12.28;86.46;99914.41;5040657;28;20066;-88
2022/09/26 08:34:01;;;;;;;2.15;1.75;;;;;;;12.26;86.28;99913.69;5044777;28;20238;-89
2022/09/26 08:37:02;;;;;;;3.95;1.55;;;;;;;12.26;86.84;99912.81;5044512;28;20048;-89
2022/09/26 08:39:52;;;;;;;2.03;1.50;;;;;;;12.26;86.90;99908.44;5062368;28;21043;-89
2022/09/26 08:43:19;;;;;;;2.38;1.50;;;;;;;12.28;86.80;99901.28;5046778;28;20040;-89
2022/09/26 08:46:43;;;;;;;6.70;1.90;;;;;;;12.28;86.63;99888.16;5045949;28;20288;-89
2022/09/26 08:56:10;;;;;;;3.83;1.73;;;;;;;12.33;87.29;99874.72;5069359;28;20588;-89
2022/09/26 08:59:04;;;;;;;5.05;2.05;;;;;;;12.33;88.18;99876.53;5078835;28;20103;-89
2022/09/26 09:02:01;;;;;;;6.55;1.70;;;;;;;12.31;87.61;99870.53;5076100;28;20128;-89
2022/09/26 09:05:34;;;;;;;2.95;1.85;;;;;;;12.32;88.12;99869.59;5058800;28;20045;-89
2022/09/26 09:08:20;;;;;;;3.60;1.50;;;;;;;12.31;88.84;99868.75;5059001;28;20048;-89
2022/09/26 09:11:11;;;;;;;2.28;1.50;;;;;;;12.33;88.45;99868.66;5047795;28;20422;-89
2022/09/26 09:14:12;;;;;;;7.75;2.45;;;;;;;12.36;88.92;99868.47;5058837;28;20115;-89
2022/09/26 09:17:12;;;;;;;2.72;1.70;;;;;;;12.37;89.06;99862.25;5072793;28;20059;-90
2022/09/26 09:19:51;;;;;;;3.95;1.83;;;;;;;12.38;88.95;99858.72;5058126;28;20238;-89
2022/09/26 09:23:05;;;;;;;3.30;1.50;;;;;;;12.41;88.33;99858.53;5077916;28;20059;-89
2022/09/26 09:26:02;;;;;;;4.32;1.80;;;;;;;12.41;89.02;99855.91;5061641;28;20065;-89
2022/09/26 09:29:21;;;;;;;6.70;2.95;;;;;;;12.42;88.66;99853.13;5066504;28;20034;-92
2022/09/26 09:32:15;;;;;;;4.40;2.00;;;;;;;12.43;88.94;99856.63;5077030;28;20039;-89
2022/09/26 09:35:02;;;;;;;4.13;1.80;;;;;;;12.44;88.69;99848.66;5068605;28;20061;-89
2022/09/26 09:37:45;;;;;;;1.40;1.30;;;;;;;12.44;88.70;99853.91;5054095;28;20052;-89
2022/09/26 09:40:35;;;;;;;3.50;1.70;;;;;;;12.44;88.84;99848.66;5056630;28;20103;-89
2022/09/26 09:43:50;;;;;;;3.28;1.88;;;;;;;12.46;89.30;99857.28;5062201;28;20044;-89
2022/09/26 09:46:29;;;;;;;4.63;2.30;;;;;;;12.45;90.32;99849.50;5072171;28;20044;-89
2022/09/26 09:49:36;;;;;;;2.95;2.05;;;;;;;12.44;90.55;99839.91;5073002;28;20075;-89
2022/09/26 09:52:49;;;;;;;4.35;2.22;;;;;;;12.44;89.68;99843.41;5077654;28;20440;-89
2022/09/26 09:55:58;;;;;;;3.35;1.92;;;;;;;12.43;89.86;99841.72;5067237;28;20032;-89
2022/09/26 09:59:05;;;;;;;3.25;1.90;;;;;;;12.43;89.97;99828.59;5058208;28;20044;-89
2022/09/26 10:02:05;;;;;;;2.67;1.60;;;;;;;12.44;90.17;99827.66;5074693;28;20147;-89
2022/09/26 10:05:26;;;;;;;2.53;1.67;;;;;;;12.44;90.40;99827.66;5070876;28;20047;-89
2022/09/26 10:08:28;;;;;;;2.40;1.80;;;;;;;12.45;90.08;99829.31;5046579;28;20041;-88
2022/09/26 10:11:41;;;;;;;2.28;1.48;;;;;;;12.45;90.00;99825.88;5063650;28;20052;-89
2022/09/26 10:14:46;;;;;;;2.75;1.88;;;;;;;12.46;89.89;99820.53;5045231;28;20139;-90
2022/09/26 10:17:52;;;;;;;2.70;1.83;;;;;;;12.46;90.54;99814.41;5071164;28;20056;-88
2022/09/26 10:21:01;;;;;;;1.52;1.38;;;;;;;12.46;89.94;99822.28;5063386;28;20036;-89
2022/09/26 10:24:15;;;;;;;2.92;1.45;;;;;;;12.45;89.96;99810.09;5073596;28;20047;-88
2022/09/26 10:27:21;;;;;;;1.67;1.40;;;;;;;12.46;89.53;99809.16;5048983;28;20370;-88
2022/09/26 10:30:00;;;;;;;1.48;1.38;;;;;;;12.45;89.47;99808.31;5052552;28;20032;-88
2022/09/26 10:32:33;;;;;;;2.30;1.50;;;;;;;12.49;89.84;99817.66;5041849;28;20258;-88
2022/09/26 10:35:55;;;;;;;5.47;1.70;;;;;;;12.51;90.21;99820.19;5047547;28;20358;-88
2022/09/26 10:40:43;;;;;;;1.60;1.30;;;;;;;12.49;90.12;99819.47;5045754;28;20045;-88
2022/09/26 10:41:43;;;;;;;2.63;1.95;;;;;;;12.51;89.95;99808.88;5043180;28;20044;-88
2022/09/26 10:44:38;;;;;;;1.90;1.50;;;;;;;12.50;90.35;99805.41;5063829;28;20051;-88
2022/09/26 10:47:31;;;;;;;4.05;1.50;;;;;;;12.51;90.35;99804.44;5059635;28;20165;-88
2022/09/26 10:50:20;;;;;;;1.48;1.30;;;;;;;12.49;90.22;99807.16;5074276;28;20044;-88
2022/09/26 10:53:11;;;;;;;1.73;1.33;;;;;;;12.51;90.01;99814.13;5063233;28;20041;-88
2022/09/26 10:56:01;;;;;;;4.20;2.10;;;;;;;12.52;89.44;99806.13;5064858;28;20040;-88
2022/09/26 10:59:07;;;;;;;1.38;1.25;;;;;;;12.54;89.53;99803.41;5064335;28;20232;-88
2022/09/26 11:01:57;;;;;;;1.40;1.30;;;;;;;12.52;89.80;99806.13;5055069;28;20316;-88
2022/09/26 11:07:29;;;;;;;1.15;1.05;;;;;;;12.57;89.50;99809.31;5070122;28;20217;-88
2022/09/26 11:10:28;;;;;;;2.22;1.05;;;;;;;12.56;88.94;99804.16;5060368;28;20032;-88
2022/09/26 11:13:28;;;;;;;2.50;1.20;;;;;;;12.59;89.31;99803.97;5067244;28;20088;-88
2022/09/26 11:16:37;;;;;;;1.58;0.93;;;;;;;12.59;89.38;99796.09;5055219;28;20041;-88
2022/09/26 11:19:26;;;;;;;0.93;0.90;;;;;;;12.58;88.72;99794.38;5069312;28;20212;-88
2022/09/26 11:22:40;;;;;;;1.52;1.20;;;;;;;12.60;88.97;99803.00;5060407;28;20042;-88
2022/09/26 11:25:42;;;;;;;1.20;1.10;;;;;;;12.59;89.08;99807.44;5055605;28;20044;-88
2022/09/26 11:28:26;;;;;;;2.25;1.15;;;;;;;12.60;88.70;99795.97;5052795;28;20032;-88
2022/09/26 11:31:33;;;;;;;0.85;0.85;;;;;;;12.60;88.20;99797.75;5059231;28;20045;-88
2022/09/26 11:34:28;;;;;;;4.25;0.90;;;;;;;12.61;88.13;99786.31;5061146;28;20377;-88
2022/09/26 11:37:49;;;;;;;1.02;0.90;;;;;;;12.61;88.09;99795.03;5072534;28;20370;-88
2022/09/26 11:41:35;;;;;;;0.93;0.80;;;;;;;12.60;87.94;99789.88;5035424;28;20036;-89
2022/09/26 11:44:22;;;;;;;1.55;0.70;;;;;;;12.62;87.65;99782.72;5061271;28;20032;-89
2022/09/26 11:47:25;;;;;;;0.70;0.70;;;;;;;12.62;87.42;99785.34;5069941;28;20343;-88
2022/09/26 11:50:14;;;;;;;0.82;0.70;;;;;;;12.62;87.99;99788.81;5068813;28;20078;-88
2022/09/26 11:53:23;;;;;;;2.05;0.60;;;;;;;12.64;87.84;99767.72;5072039;28;20403;-89
2022/09/26 11:56:01;;;;;;;0.73;0.60;;;;;;;12.64;87.78;99758.06;5058740;28;20225;-88
2022/09/26 11:59:23;;;;;;;1.77;0.88;;;;;;;12.64;88.29;99760.69;5051420;28;20037;-88
2022/09/26 12:02:33;;;;;;;0.52;0.50;;;;;;;12.66;88.10;99753.56;4980375;28;20330;-88
2022/09/26 12:05:55;;;;;;;0.85;0.60;;;;;;;12.67;88.00;99762.25;4934962;28;20267;-88
2022/09/26 12:09:10;;;;;;;4.32;0.90;;;;;;;12.69;88.60;99768.25;4990939;28;20069;-88
2022/09/26 12:12:01;;;;;;;1.20;0.80;;;;;;;12.71;88.79;99771.63;4979717;28;20102;-88
2022/09/26 12:15:44;;;;;;;2.33;0.85;;;;;;;12.72;88.71;99764.59;4987788;28;20305;-88
2022/09/26 12:18:28;;;;;;;1.60;1.50;;;;;;;12.71;88.44;99760.28;4981070;28;20028;-91
2022/09/26 12:21:26;;;;;;;1.58;1.40;;;;;;;12.73;88.29;99763.63;5050391;28;20389;-88
2022/09/26 12:24:18;;;;;;;1.63;1.27;;;;;;;12.72;87.95;99761.97;5050056;28;20040;-88
2022/09/26 12:27:39;;;;;;;1.50;1.40;;;;;;;12.75;88.75;99764.38;5030793;28;20059;-88
2022/09/26 12:30:21;;;;;;;2.30;1.60;;;;;;;12.75;88.53;99752.09;4993990;28;20398;-88
2022/09/26 12:33:42;;;;;;;2.60;1.33;;;;;;;12.75;88.55;99745.97;5023816;28;20028;-89
2022/09/26 12:36:56;;;;;;;1.52;1.02;;;;;;;12.77;88.36;99736.22;5045648;28;20033;-89
2022/09/26 12:40:23;;;;;;;1.40;1.30;;;;;;;12.80;88.84;99736.84;5023479;28;20041;-88
2022/09/26 12:43:39;;;;;;;1.60;1.50;;;;;;;12.82;88.54;99745.50;5046096;28;20037;-89
2022/09/26 12:46:37;;;;;;;1.00;1.00;;;;;;;12.84;89.34;99733.09;4994782;28;20068;-88
2022/09/26 12:49:49;;;;;;;4.70;1.60;;;;;;;12.86;89.35;99733.81;5041659;28;20045;-88
2022/09/26 12:52:49;;;;;;;3.75;1.60;;;;;;;12.86;89.24;99722.44;5034741;28;20348;-88
2022/09/26 12:55:37;;;;;;;1.65;1.33;;;;;;;12.89;89.05;99717.00;5068794;28;20041;-88
2022/09/26 12:58:39;;;;;;;3.70;1.50;;;;;;;12.91;89.44;99715.09;5047622;28;20032;-89
2022/09/26 13:01:38;;;;;;;1.98;1.33;;;;;;;12.92;89.14;99713.34;5066393;28;20060;-88
2022/09/26 13:04:40;;;;;;;1.50;1.35;;;;;;;12.95;89.37;99713.97;5068298;28;20368;-88
2022/09/26 13:07:46;;;;;;;3.65;1.27;;;;;;;12.98;89.97;99711.09;5059157;28;20366;-88
2022/09/26 13:11:03;;;;;;;5.90;1.40;;;;;;;13.01;90.68;99708.28;5060497;28;20221;-88